createdAt,value
2019-01-27T00:02:05.920Z,29.90
2019-01-27T00:04:37.341Z,26.63
2019-01-27T00:07:08.449Z,29.40
2019-01-27T00:09:39.334Z,28.10
2019-01-27T00:12:09.763Z,26.67
2019-01-27T00:14:40.171Z,28.57
2019-01-27T00:17:11.206Z,28.13
2019-01-27T00:19:42.882Z,30.60
2019-01-27T00:22:14.256Z,29.00
2019-01-27T00:24:44.695Z,28.20
2019-01-27T00:27:15.147Z,28.27
2019-01-27T00:29:45.622Z,27.03
2019-01-27T00:32:16.452Z,26.90
2019-01-27T00:34:47.139Z,26.67
2019-01-27T00:37:18.157Z,26.40
2019-01-27T00:39:48.867Z,26.20
2019-01-27T00:42:20.043Z,27.57
2019-01-27T00:44:50.668Z,29.73
2019-01-27T00:47:21.499Z,28.57
2019-01-27T00:49:52.455Z,28.90
2019-01-27T00:52:22.915Z,28.57
2019-01-27T00:54:53.575Z,29.60
2019-01-27T00:57:24.292Z,27.07
2019-01-27T00:59:55.567Z,27.37
2019-01-27T01:02:26.577Z,27.43
2019-01-27T01:04:57.304Z,30.13
2019-01-27T01:07:27.823Z,27.63
2019-01-27T01:09:59.087Z,27.60
2019-01-27T01:12:29.274Z,27.37
2019-01-27T01:14:59.752Z,25.37
2019-01-27T01:17:30.063Z,27.90
2019-01-27T01:20:00.907Z,25.60
2019-01-27T01:22:31.567Z,24.80
2019-01-27T01:25:02.111Z,25.97
2019-01-27T01:27:33.271Z,26.00
2019-01-27T01:30:08.008Z,24.97
2019-01-27T01:32:38.708Z,27.87
2019-01-27T01:35:10.934Z,26.40
2019-01-27T01:37:42.227Z,21.53
2019-01-27T01:40:16.270Z,22.70
2019-01-27T01:42:47.187Z,27.27
2019-01-27T01:45:23.209Z,25.00
2019-01-27T01:47:54.259Z,24.30
2019-01-27T01:50:25.247Z,24.27
2019-01-27T01:52:55.893Z,24.00
2019-01-27T01:55:26.506Z,23.90
2019-01-27T01:57:59.153Z,23.83
2019-01-27T02:00:33.339Z,22.47
2019-01-27T02:03:03.811Z,22.87
2019-01-27T02:05:34.463Z,25.27
2019-01-27T02:08:05.408Z,25.00
2019-01-27T02:10:35.848Z,22.20
2019-01-27T02:13:06.791Z,22.87
2019-01-27T02:16:06.591Z,22.47
2019-01-27T02:18:39.790Z,22.07
2019-01-27T02:21:11.286Z,22.53
2019-01-27T02:23:42.460Z,22.17
2019-01-27T02:26:13.655Z,21.50
2019-01-27T02:28:44.286Z,23.70
2019-01-27T02:31:15.006Z,21.07
2019-01-27T02:33:46.672Z,20.40
2019-01-27T02:36:17.297Z,21.10
2019-01-27T02:38:47.808Z,21.07
2019-01-27T02:41:18.631Z,21.43
2019-01-27T02:43:49.327Z,20.67
2019-01-27T02:46:19.889Z,21.60
2019-01-27T02:48:50.463Z,18.40
2019-01-27T02:51:20.771Z,20.53
2019-01-27T02:53:51.775Z,21.63
2019-01-27T02:56:23.051Z,20.40
2019-01-27T02:58:54.018Z,21.73
2019-01-27T03:01:24.631Z,19.93
2019-01-27T03:03:55.331Z,20.70
2019-01-27T03:06:51.217Z,18.60
2019-01-27T03:09:27.016Z,19.80
2019-01-27T03:11:57.509Z,19.03
2019-01-27T03:14:29.051Z,18.03
2019-01-27T03:17:00.104Z,17.20
2019-01-27T03:19:31.911Z,18.17
2019-01-27T03:22:02.371Z,18.30
2019-01-27T03:24:33.099Z,19.77
2019-01-27T03:27:03.611Z,17.90
2019-01-27T03:29:33.887Z,18.60
2019-01-27T03:32:04.445Z,20.07
2019-01-27T03:34:34.975Z,19.13
2019-01-27T03:37:05.731Z,16.63
2019-01-27T03:39:36.470Z,17.60
2019-01-27T03:42:08.536Z,17.10
2019-01-27T03:44:39.810Z,16.70
2019-01-27T03:47:10.848Z,16.67
2019-01-27T03:49:46.940Z,17.30
2019-01-27T03:52:17.855Z,17.60
2019-01-27T03:54:51.783Z,15.87
2019-01-27T03:57:22.049Z,16.03
2019-01-27T03:59:52.670Z,17.50
2019-01-27T04:02:23.327Z,15.03
2019-01-27T04:04:54.103Z,15.00
2019-01-27T04:07:24.967Z,14.53
2019-01-27T04:09:55.973Z,16.13
2019-01-27T04:12:27.508Z,15.20
2019-01-27T04:14:58.296Z,16.20
2019-01-27T04:17:29.183Z,15.60
2019-01-27T04:20:00.304Z,14.73
2019-01-27T04:22:31.823Z,16.03
2019-01-27T04:25:02.220Z,15.40
2019-01-27T04:27:32.890Z,15.63
2019-01-27T04:30:03.327Z,15.50
2019-01-27T04:32:34.764Z,15.60
2019-01-27T04:35:06.741Z,14.50
2019-01-27T04:37:39.276Z,15.20
2019-01-27T04:40:13.568Z,15.93
2019-01-27T04:42:45.244Z,16.07
2019-01-27T04:45:19.292Z,16.10
2019-01-27T04:47:51.230Z,16.20
2019-01-27T04:50:22.437Z,16.10
2019-01-27T04:52:52.950Z,16.70
2019-01-27T04:55:24.096Z,17.33
2019-01-27T04:57:55.663Z,16.70
2019-01-27T05:00:26.959Z,16.00
2019-01-27T05:03:11.497Z,16.57
2019-01-27T05:05:43.461Z,14.40
2019-01-27T05:08:14.866Z,18.90
2019-01-27T05:10:45.774Z,13.33
2019-01-27T05:13:17.168Z,12.93
2019-01-27T05:15:48.293Z,14.10
2019-01-27T05:18:20.052Z,12.80
2019-01-27T05:20:50.784Z,14.20
2019-01-27T05:23:21.896Z,12.60
2019-01-27T05:25:52.391Z,13.93
2019-01-27T05:28:22.931Z,12.67
2019-01-27T05:30:53.551Z,13.57
2019-01-27T05:33:24.260Z,13.47
2019-01-27T05:35:55.197Z,12.57
2019-01-27T05:38:25.926Z,11.10
2019-01-27T05:40:56.941Z,11.97
2019-01-27T05:43:27.558Z,10.93
2019-01-27T05:45:58.211Z,9.67
2019-01-27T05:48:29.017Z,10.70
2019-01-27T05:50:59.746Z,10.37
2019-01-27T05:53:30.255Z,10.30
2019-01-27T05:56:01.048Z,10.67
2019-01-27T05:58:31.490Z,10.10
2019-01-27T06:01:02.879Z,10.63
2019-01-27T06:03:33.615Z,10.50
2019-01-27T06:06:04.635Z,9.23
2019-01-27T06:08:35.654Z,8.10
2019-01-27T06:11:06.140Z,9.17
2019-01-27T06:13:36.697Z,10.27
2019-01-27T06:16:08.571Z,9.23
2019-01-27T06:18:39.237Z,10.07
2019-01-27T06:21:09.579Z,9.80
2019-01-27T06:23:40.932Z,9.30
2019-01-27T06:26:11.786Z,9.10
2019-01-27T06:28:42.460Z,8.70
2019-01-27T06:31:12.945Z,8.70
2019-01-27T06:34:05.079Z,9.57
2019-01-27T06:36:35.520Z,10.57
2019-01-27T06:39:08.279Z,9.70
2019-01-27T06:41:38.746Z,9.53
2019-01-27T06:44:09.871Z,9.53
2019-01-27T06:46:41.045Z,9.50
2019-01-27T06:49:11.751Z,9.67
2019-01-27T06:51:43.292Z,9.50
2019-01-27T06:54:13.894Z,8.57
2019-01-27T06:56:45.099Z,9.07
2019-01-27T06:59:32.955Z,7.03
2019-01-27T07:02:32.335Z,9.67
2019-01-27T07:05:24.368Z,8.60
2019-01-27T07:08:08.218Z,9.20
2019-01-27T07:10:58.098Z,11.03
2019-01-27T07:13:53.818Z,11.10
2019-01-27T07:16:43.519Z,11.70
2019-01-27T07:19:38.982Z,10.83
2019-01-27T07:22:37.419Z,12.77
2019-01-27T07:25:28.312Z,11.20
2019-01-27T07:28:33.027Z,11.57
2019-01-27T07:31:20.444Z,12.90
2019-01-27T07:34:02.666Z,12.53
2019-01-27T07:36:43.249Z,15.60
2019-01-27T07:39:28.490Z,15.10
2019-01-27T07:42:16.523Z,14.50
2019-01-27T07:45:08.761Z,14.33
2019-01-27T07:48:07.968Z,16.97
2019-01-27T07:50:57.557Z,13.33
2019-01-27T07:53:56.452Z,14.57
2019-01-27T07:56:46.760Z,14.43
2019-01-27T07:59:36.112Z,14.00
2019-01-27T08:02:38.072Z,14.10
2019-01-27T08:05:20.777Z,13.70
2019-01-27T08:08:11.451Z,13.67
2019-01-27T08:10:59.420Z,13.30
2019-01-27T08:13:55.866Z,13.60
2019-01-27T08:16:34.351Z,14.40
2019-01-27T08:19:30.310Z,13.97
2019-01-27T08:22:28.768Z,12.30
2019-01-27T08:25:18.347Z,13.10
2019-01-27T08:28:06.451Z,12.97
2019-01-27T08:30:54.930Z,12.83
2019-01-27T08:33:39.382Z,13.90
2019-01-27T08:36:36.492Z,11.53
2019-01-27T08:39:34.488Z,13.20
2019-01-27T08:42:25.033Z,13.93
2019-01-27T08:45:14.912Z,13.13
2019-01-27T08:47:45.741Z,12.57
2019-01-27T08:50:18.289Z,11.73
2019-01-27T08:52:48.987Z,12.20
2019-01-27T08:55:19.244Z,12.60
2019-01-27T08:57:50.209Z,12.93
2019-01-27T09:00:29.585Z,11.57
2019-01-27T09:03:09.338Z,11.10
2019-01-27T09:05:54.712Z,10.53
2019-01-27T09:08:33.129Z,11.37
2019-01-27T09:11:41.423Z,10.90
2019-01-27T09:14:33.747Z,12.27
2019-01-27T09:17:21.740Z,13.00
2019-01-27T09:20:03.257Z,13.63
2019-01-27T09:22:51.491Z,13.00
2019-01-27T09:25:46.802Z,13.80
2019-01-27T09:28:31.904Z,13.03
2019-01-27T09:31:15.074Z,13.07
2019-01-27T09:34:20.565Z,14.77
2019-01-27T09:37:10.015Z,15.47
2019-01-27T09:40:14.809Z,15.90
2019-01-27T09:43:03.165Z,15.93
2019-01-27T09:46:05.282Z,16.17
2019-01-27T09:48:49.948Z,15.30
2019-01-27T09:51:31.875Z,17.93
2019-01-27T09:54:14.593Z,17.17
2019-01-27T09:57:08.178Z,15.40
2019-01-27T09:59:46.703Z,15.60
2019-01-27T10:02:34.835Z,17.70
2019-01-27T10:05:20.337Z,16.80
2019-01-27T10:08:12.983Z,16.67
2019-01-27T10:11:08.500Z,16.80
2019-01-27T10:13:48.137Z,18.70
2019-01-27T10:16:33.942Z,16.03
2019-01-27T10:19:12.414Z,17.73
2019-01-27T10:22:09.015Z,17.27
2019-01-27T10:24:54.041Z,17.00
2019-01-27T10:27:43.565Z,17.23
2019-01-27T10:30:29.838Z,17.30
2019-01-27T10:33:19.727Z,18.50
2019-01-27T10:36:18.215Z,17.17
2019-01-27T10:39:06.422Z,18.83
2019-01-27T10:41:42.948Z,18.10
2019-01-27T10:44:35.790Z,21.60
2019-01-27T10:47:19.217Z,21.80
2019-01-27T10:50:01.311Z,19.10
2019-01-27T10:52:57.304Z,19.90
2019-01-27T10:55:46.549Z,17.80
2019-01-27T10:58:39.220Z,18.17
2019-01-27T11:01:30.968Z,16.87
2019-01-27T11:04:12.103Z,17.77
2019-01-27T11:07:04.409Z,17.10
2019-01-27T11:09:47.850Z,18.60
2019-01-27T11:12:37.050Z,18.87
2019-01-27T11:15:28.482Z,18.20
2019-01-27T11:18:21.144Z,16.90
2019-01-27T11:21:03.194Z,19.73
2019-01-27T11:23:58.340Z,20.17
2019-01-27T11:26:44.888Z,19.30
2019-01-27T11:29:31.764Z,18.87
2019-01-27T11:32:22.263Z,18.67
2019-01-27T11:35:12.724Z,20.10
2019-01-27T11:38:04.294Z,18.97
2019-01-27T11:40:53.496Z,19.97
2019-01-27T11:43:32.953Z,18.93
2019-01-27T11:46:29.590Z,20.37
2019-01-27T11:49:17.650Z,19.17
2019-01-27T11:51:52.745Z,20.20
2019-01-27T11:54:23.943Z,19.70
2019-01-27T11:57:00.415Z,19.07
2019-01-27T11:59:31.300Z,17.90
2019-01-27T12:02:02.491Z,18.97
2019-01-27T12:04:33.634Z,19.57
2019-01-27T12:07:05.420Z,18.53
2019-01-27T12:09:38.103Z,17.47
2019-01-27T12:12:09.499Z,18.63
2019-01-27T12:14:41.042Z,18.17
2019-01-27T12:17:13.101Z,17.03
2019-01-27T12:19:44.476Z,18.80
2019-01-27T12:22:15.711Z,18.30
2019-01-27T12:24:46.551Z,19.10
2019-01-27T12:27:18.011Z,19.60
2019-01-27T12:29:48.954Z,17.63
2019-01-27T12:32:20.213Z,16.93
2019-01-27T12:34:51.698Z,18.53
2019-01-27T12:37:23.003Z,16.40
2019-01-27T12:39:53.762Z,19.60
2019-01-27T12:42:25.745Z,20.87
2019-01-27T12:44:56.823Z,20.17
2019-01-27T12:47:27.903Z,18.23
2019-01-27T12:49:59.074Z,18.83
2019-01-27T12:52:30.607Z,21.10
2019-01-27T12:55:02.175Z,19.30
2019-01-27T12:57:33.361Z,20.50
2019-01-27T13:00:10.169Z,21.30
2019-01-27T13:02:41.170Z,19.43
2019-01-27T13:05:12.133Z,22.17
2019-01-27T13:07:43.315Z,20.13
2019-01-27T13:10:15.574Z,21.10
2019-01-27T13:12:46.505Z,21.13
2019-01-27T13:15:18.408Z,20.50
2019-01-27T13:17:49.782Z,21.50
2019-01-27T13:20:24.816Z,20.90
2019-01-27T13:22:55.922Z,19.40
2019-01-27T13:25:28.871Z,21.53
2019-01-27T13:28:01.857Z,19.83
2019-01-27T13:30:33.287Z,20.00
2019-01-27T13:33:04.074Z,20.47
2019-01-27T13:35:38.818Z,20.53
2019-01-27T13:38:10.464Z,19.83
2019-01-27T13:40:41.815Z,20.30
2019-01-27T13:43:13.019Z,20.90
2019-01-27T13:45:44.941Z,20.40
2019-01-27T13:48:17.000Z,22.47
2019-01-27T13:50:48.684Z,20.30
2019-01-27T13:53:20.132Z,21.33
2019-01-27T13:55:51.423Z,21.10
2019-01-27T13:58:22.126Z,22.00
2019-01-27T14:00:54.190Z,20.80
2019-01-27T14:03:24.913Z,23.03
2019-01-27T14:05:55.705Z,20.33
2019-01-27T14:08:27.224Z,19.00
2019-01-27T14:10:59.523Z,19.93
2019-01-27T14:13:31.974Z,18.53
2019-01-27T14:16:03.341Z,20.00
2019-01-27T14:18:35.072Z,19.97
2019-01-27T14:21:16.535Z,21.17
2019-01-27T14:23:43.218Z,21.00
2019-01-27T14:26:15.635Z,21.17
2019-01-27T14:28:47.066Z,20.77
2019-01-27T14:31:17.936Z,21.37
2019-01-27T14:33:49.043Z,22.93
2019-01-27T14:36:20.835Z,22.10
2019-01-27T14:38:52.058Z,22.90
2019-01-27T14:41:25.611Z,23.20
2019-01-27T14:43:57.825Z,21.87
2019-01-27T14:46:29.340Z,22.80
2019-01-27T14:49:00.894Z,21.17
2019-01-27T14:51:31.914Z,20.70
2019-01-27T14:54:02.836Z,19.77
2019-01-27T14:56:33.717Z,18.67
2019-01-27T14:59:04.784Z,21.30
2019-01-27T15:01:37.657Z,18.57
2019-01-27T15:04:11.672Z,18.20
2019-01-27T15:06:42.385Z,18.83
2019-01-27T15:09:13.406Z,19.90
2019-01-27T15:11:44.261Z,19.47
2019-01-27T15:14:16.272Z,18.40
2019-01-27T15:16:51.885Z,17.77
2019-01-27T15:19:23.823Z,19.87
2019-01-27T15:21:54.905Z,15.97
2019-01-27T15:24:26.219Z,17.57
2019-01-27T15:27:00.086Z,15.53
2019-01-27T15:29:31.881Z,16.13
2019-01-27T15:32:03.017Z,16.20
2019-01-27T15:34:33.988Z,21.10
2019-01-27T15:37:05.786Z,18.60
2019-01-27T15:39:37.729Z,23.20
2019-01-27T15:42:08.714Z,22.73
2019-01-27T15:44:43.586Z,23.33
2019-01-27T15:47:15.920Z,23.50
2019-01-27T15:49:47.123Z,20.03
2019-01-27T15:52:18.337Z,21.80
2019-01-27T15:54:49.893Z,19.67
2019-01-27T15:57:21.428Z,20.00
2019-01-27T16:00:00.529Z,20.40
2019-01-27T16:02:32.083Z,22.17
2019-01-27T16:05:03.533Z,22.30
2019-01-27T16:07:35.817Z,20.07
2019-01-27T16:10:07.743Z,19.83
2019-01-27T16:12:39.562Z,20.77
2019-01-27T16:15:13.386Z,19.10
2019-01-27T16:17:45.740Z,20.30
2019-01-27T16:20:18.377Z,21.70
2019-01-27T16:23:01.095Z,20.20
2019-01-27T16:25:32.648Z,22.53
2019-01-27T16:28:05.293Z,23.07
2019-01-27T16:30:54.616Z,22.50
2019-01-27T16:33:41.392Z,23.70
2019-01-27T16:36:13.261Z,24.20
2019-01-27T16:38:44.856Z,22.33
2019-01-27T16:41:16.704Z,23.37
2019-01-27T16:43:48.964Z,23.40
2019-01-27T16:46:20.362Z,23.83
2019-01-27T16:48:52.681Z,24.60
2019-01-27T16:51:24.314Z,23.23
2019-01-27T16:53:55.702Z,22.13
2019-01-27T16:56:27.128Z,23.00
2019-01-27T16:58:59.514Z,23.23
2019-01-27T17:01:31.645Z,22.53
2019-01-27T17:04:03.314Z,24.00
2019-01-27T17:06:35.253Z,23.27
2019-01-27T17:09:10.450Z,22.90
2019-01-27T17:11:41.807Z,23.53
2019-01-27T17:14:13.530Z,23.50
2019-01-27T17:16:46.041Z,22.77
2019-01-27T17:19:17.690Z,22.10
2019-01-27T17:21:49.184Z,25.47
2019-01-27T17:24:20.587Z,24.23
2019-01-27T17:26:52.053Z,24.43
2019-01-27T17:29:26.226Z,24.30
2019-01-27T17:31:57.447Z,23.40
2019-01-27T17:34:28.813Z,22.10
2019-01-27T17:36:59.670Z,21.43
2019-01-27T17:39:33.015Z,23.30
2019-01-27T17:42:03.977Z,23.90
2019-01-27T17:44:35.966Z,23.90
2019-01-27T17:47:07.284Z,22.83
2019-01-27T17:49:38.560Z,24.10
2019-01-27T17:52:10.575Z,22.20
2019-01-27T17:54:42.309Z,23.93
2019-01-27T17:57:31.894Z,22.30
2019-01-27T18:00:27.892Z,23.43
2019-01-27T18:03:10.222Z,23.63
2019-01-27T18:05:51.392Z,24.17
2019-01-27T18:08:31.897Z,23.27
2019-01-27T18:11:10.872Z,21.70
2019-01-27T18:17:00.007Z,24.20
2019-01-27T18:19:31.118Z,22.27
2019-01-27T18:22:02.458Z,21.33
2019-01-27T18:24:33.893Z,21.90
2019-01-27T18:27:05.938Z,21.43
2019-01-27T18:29:38.059Z,25.50
2019-01-27T18:32:09.616Z,24.90
2019-01-27T18:34:41.530Z,25.57
2019-01-27T18:37:12.867Z,25.60
2019-01-27T18:39:43.743Z,25.37
2019-01-27T18:42:14.959Z,25.50
2019-01-27T18:44:46.793Z,24.27
2019-01-27T18:47:18.230Z,24.93
2019-01-27T18:49:49.308Z,26.90
2019-01-27T18:52:21.703Z,26.40
2019-01-27T18:55:17.009Z,25.60
2019-01-27T18:57:58.815Z,27.77
2019-01-27T19:00:48.687Z,25.40
2019-01-27T19:03:38.415Z,25.90
2019-01-27T19:06:27.525Z,24.80
2019-01-27T19:09:09.026Z,27.37
2019-01-27T19:12:02.542Z,28.07
2019-01-27T19:14:52.963Z,28.87
2019-01-27T19:17:44.170Z,29.87
2019-01-27T19:20:33.522Z,28.40
2019-01-27T19:23:33.671Z,26.77
2019-01-27T19:26:21.711Z,25.70
2019-01-27T19:29:14.698Z,25.67
2019-01-27T19:31:58.088Z,21.17
2019-01-27T19:34:48.291Z,24.60
2019-01-27T19:37:41.999Z,23.00
2019-01-27T19:40:37.823Z,23.77
2019-01-27T19:43:29.975Z,25.30
2019-01-27T19:46:13.277Z,22.70
2019-01-27T19:48:54.522Z,24.60
2019-01-27T19:52:02.970Z,23.90
2019-01-27T19:54:54.960Z,24.57
2019-01-27T19:57:57.339Z,26.57
2019-01-27T20:00:57.660Z,26.93
2019-01-27T20:03:54.619Z,24.07
2019-01-27T20:06:33.538Z,25.10
2019-01-27T20:09:32.495Z,25.50
2019-01-27T20:12:32.855Z,24.67
2019-01-27T20:15:40.578Z,25.00
2019-01-27T20:18:29.615Z,22.00
2019-01-27T20:21:19.094Z,25.07
2019-01-27T20:24:02.343Z,25.97
2019-01-27T20:26:55.511Z,24.50
2019-01-27T20:29:37.951Z,24.80
2019-01-27T20:32:27.113Z,23.30
2019-01-27T20:35:22.893Z,21.80
2019-01-27T20:38:12.728Z,24.90
2019-01-27T20:41:06.015Z,24.00
2019-01-27T20:43:52.006Z,23.00
2019-01-27T20:46:41.517Z,23.77
2019-01-27T20:49:34.435Z,23.60
2019-01-27T20:52:39.798Z,24.80
2019-01-27T20:55:34.575Z,22.10
2019-01-27T20:58:42.957Z,23.20
2019-01-27T21:01:34.116Z,23.30
2019-01-27T21:04:15.374Z,23.60
2019-01-27T21:07:11.801Z,26.20
2019-01-27T21:10:04.353Z,24.63
2019-01-27T21:12:57.542Z,26.10
2019-01-27T21:15:45.677Z,25.23
2019-01-27T21:18:24.915Z,23.57
2019-01-27T21:20:57.119Z,24.00
2019-01-27T21:23:29.342Z,26.33
2019-01-27T21:26:00.784Z,24.30
2019-01-27T21:28:33.177Z,24.60
2019-01-27T21:31:05.356Z,23.60
2019-01-27T21:33:38.228Z,25.63
2019-01-27T21:36:10.255Z,26.07
2019-01-27T21:38:41.034Z,22.03
2019-01-27T21:41:14.429Z,26.20
2019-01-27T21:43:46.431Z,23.53
2019-01-27T21:46:17.612Z,24.10
2019-01-27T21:48:49.500Z,25.57
2019-01-27T21:51:20.926Z,24.60
2019-01-27T21:53:52.694Z,24.43
2019-01-27T21:56:24.352Z,23.03
2019-01-27T21:58:54.869Z,23.87
2019-01-27T22:01:28.692Z,24.55
2019-01-27T22:04:00.171Z,24.70
2019-01-27T22:06:30.636Z,23.20
2019-01-27T22:09:01.533Z,24.60
2019-01-27T22:11:32.328Z,25.37
2019-01-27T22:14:03.741Z,24.43
2019-01-27T22:16:34.148Z,23.47
2019-01-27T22:19:04.895Z,22.93
2019-01-27T22:21:35.356Z,23.20
2019-01-27T22:24:09.425Z,25.07
2019-01-27T22:26:40.228Z,24.47
2019-01-27T22:29:11.082Z,21.97
2019-01-27T22:31:41.852Z,24.10
2019-01-27T22:34:12.296Z,28.73
2019-01-27T22:36:43.017Z,24.30
2019-01-27T22:39:13.380Z,22.90
2019-01-27T22:41:44.544Z,26.07
2019-01-27T22:44:15.050Z,22.03
2019-01-27T22:46:45.564Z,23.87
2019-01-27T22:49:16.167Z,25.67
2019-01-27T22:51:46.807Z,23.30
2019-01-27T22:54:17.643Z,25.23
2019-01-27T22:56:48.233Z,24.50
2019-01-27T22:59:19.913Z,28.43
2019-01-27T23:01:50.723Z,26.10
2019-01-27T23:04:21.970Z,24.37
2019-01-27T23:06:53.463Z,26.13
2019-01-27T23:09:23.858Z,23.80
2019-01-27T23:11:54.026Z,25.23
2019-01-27T23:14:24.706Z,24.23
2019-01-27T23:16:55.764Z,26.87
2019-01-27T23:19:27.930Z,23.30
2019-01-27T23:21:59.916Z,26.97
2019-01-27T23:24:30.766Z,23.73
2019-01-27T23:27:01.629Z,25.80
2019-01-27T23:29:32.548Z,25.50
2019-01-27T23:32:03.100Z,23.13
2019-01-27T23:34:33.658Z,26.67
2019-01-27T23:37:04.043Z,25.70
2019-01-27T23:39:35.302Z,22.57
2019-01-27T23:42:06.214Z,25.77
2019-01-27T23:44:37.758Z,24.00
2019-01-27T23:47:08.763Z,24.57
2019-01-27T23:49:40.143Z,25.70
2019-01-27T23:52:11.549Z,21.63
2019-01-27T23:54:42.051Z,24.00
2019-01-27T23:57:12.855Z,24.33
2019-01-27T23:59:44.454Z,24.57
